Fairbank, Pennsylvania
Current Conditions -  °F | °C
As of 10:53 AM on Thursday 23 Oct 2014 (Local Time) from KMGW Reporting Station
Overcast Overcast  
Wind Chill: 50°   Ceiling: 1700
Heat Index: 50°   Visibility: 10mi
Dew Point: 41°   Wind: 5mph
Humidity: 71%   Direction: 290°WNW
Pressure: 30.15"   Gusts: NA
Location:  39.94°N, 79.85°W
Report Text: KMGW 231453Z 29004KT 10SM BKN017 OVC023 10/05 A3015 RMK AO2 SLP214 T01000050 53000
Loading
Personal Weather Stations






























Interactive Weather Map
Tropical Storm Tracking
New forecast layout! Learn more

10-Day Weather Forecast

Advertisements
Track Severe Weather on mobile